ICAO code: LHPR | IATA code: QGY | SITA: QGYAPXH | AFTN: LHPRZPZX

Időjárási adatok

METAR LHPR 031745Z AUTO 26006KT CAVOK 18/11 Q1004=
TAF LHPR 031715Z 0318/0403 28009KT CAVOK PROB30 TEMPO 0318/0320
VRB14G24KT 7000 -TSRA -SHRA SCT045CB BKN070 BECMG 0319/0322
Nem volt érdemleges időjárási jelenség az elmúlt órában
2020-06-03 18:00:00 UTC
Hőmérséklet
17.3 °C
 
Harmatpont
11.0 °C
 
Rel. páratartalom
67%
 
QNH
1004.3 hPa
 
Szélsebesség
3.3 m/s
Max
4.3 m/s
Szélirány
280°
 
Csapadék (1 óra)
0.0 mm
 
Látótávolság
20000 m
 
RVR
>1500 m RWY30
 
1. felhőréteg mennyisége
1 octa
 
1. felhőréteg alapja
7570 m